Time;durP1;ratioP1;P1;durP2;ratioP2;P2;SDS_P1;SDS_P2;PMS_P1;PMS_P2;Temp;Humidity;BMP_temperature;BMP_pressure;BME280_temperature;BME280_humidity;BME280_pressure;Samples;Min_cycle;Max_cycle;Signal;HPM_P1;HPM_P2
2023/07/22 04:02:54;;;;;;;0.60;0.10;;;16.80;99.90;;;;;;5013852;23;20498;-73
2023/07/22 04:05:22;;;;;;;0.60;0.10;;;16.80;99.90;;;;;;5014144;28;20444;-72
2023/07/22 04:07:50;;;;;;;0.60;0.10;;;16.70;99.90;;;;;;5014014;28;20519;-74
2023/07/22 04:10:18;;;;;;;0.60;0.10;;;16.70;99.90;;;;;;5014383;28;20447;-73
2023/07/22 04:12:46;;;;;;;0.60;0.10;;;16.70;99.90;;;;;;5015256;28;21034;-75
2023/07/22 04:15:15;;;;;;;0.60;0.10;;;16.80;99.90;;;;;;5014479;28;21076;-74
2023/07/22 04:17:42;;;;;;;5.03;1.37;;;16.70;99.90;;;;;;5033563;28;20898;-74
2023/07/22 04:20:12;;;;;;;0.60;0.10;;;16.60;99.90;;;;;;5034195;28;20856;-73
2023/07/22 04:22:40;;;;;;;0.60;0.10;;;16.60;99.90;;;;;;5033139;28;20560;-76
2023/07/22 04:25:09;;;;;;;0.60;0.10;;;13.70;99.90;;;;;;5034024;28;20475;-73
2023/07/22 04:27:37;;;;;;;0.60;0.10;;;16.60;99.90;;;;;;5034065;28;20504;-73
2023/07/22 04:30:06;;;;;;;0.60;0.10;;;16.60;99.90;;;;;;5034151;28;20524;-73
2023/07/22 04:32:34;;;;;;;0.60;0.20;;;16.50;99.90;;;;;;5034027;28;20566;-77
2023/07/22 04:35:02;;;;;;;0.60;0.10;;;16.50;99.90;;;;;;5034400;28;20791;-75
2023/07/22 04:37:31;;;;;;;0.93;0.60;;;16.50;99.90;;;;;;5033882;28;21023;-73
2023/07/22 04:39:59;;;;;;;0.60;0.20;;;16.40;99.90;;;;;;5033922;28;20442;-73
2023/07/22 04:42:27;;;;;;;0.60;0.13;;;16.50;99.90;;;;;;5034283;28;20534;-73
2023/07/22 04:44:55;;;;;;;0.60;0.20;;;16.50;99.90;;;;;;5034717;28;20441;-74
2023/07/22 04:47:23;;;;;;;0.60;0.10;;;16.50;99.90;;;;;;5034436;28;20497;-75
2023/07/22 04:49:51;;;;;;;0.60;0.10;;;16.60;99.90;;;;;;5033847;28;20543;-76
2023/07/22 04:52:19;;;;;;;0.60;0.20;;;16.60;99.90;;;;;;5033651;28;20465;-73
2023/07/22 04:54:48;;;;;;;0.60;0.10;;;16.70;99.90;;;;;;5033689;28;20453;-73
2023/07/22 04:57:16;;;;;;;0.60;0.13;;;16.70;99.90;;;;;;5033295;28;20458;-73
2023/07/22 04:59:44;;;;;;;0.60;0.20;;;16.70;99.90;;;;;;5026900;28;20815;-73
2023/07/22 05:02:12;;;;;;;0.60;0.10;;;16.60;99.90;;;;;;5012867;28;20526;-74
2023/07/22 05:04:40;;;;;;;0.60;0.10;;;16.60;99.90;;;;;;5013083;28;20444;-75
2023/07/22 05:07:08;;;;;;;0.60;0.20;;;16.70;99.90;;;;;;5012527;28;20450;-73
2023/07/22 05:09:37;;;;;;;0.60;0.10;;;16.70;99.90;;;;;;5011153;28;20546;-74
2023/07/22 05:12:07;;;;;;;0.60;0.10;;;16.80;99.90;;;;;;5008717;28;20885;-73
2023/07/22 05:14:35;;;;;;;0.60;0.20;;;16.80;99.90;;;;;;5013801;28;20447;-74
2023/07/22 05:17:03;;;;;;;0.60;0.13;;;16.90;99.90;;;;;;5018804;28;20443;-73
2023/07/22 05:19:31;;;;;;;0.60;0.20;;;17.00;99.90;;;;;;5019836;28;20481;-73
2023/07/22 05:21:59;;;;;;;0.60;0.10;;;17.00;99.90;;;;;;5016905;28;20604;-73
2023/07/22 05:24:27;;;;;;;0.60;0.10;;;;;;;;;;5013189;28;20445;-73
2023/07/22 05:26:55;;;;;;;0.60;0.10;;;17.10;99.90;;;;;;5012885;28;20449;-73
2023/07/22 05:29:37;;;;;;;0.60;0.10;;;17.20;99.90;;;;;;5013480;28;20444;-73
2023/07/22 05:32:06;;;;;;;0.60;0.10;;;17.30;99.90;;;;;;5012513;28;20828;-74
2023/07/22 05:34:53;;;;;;;0.60;0.10;;;17.40;99.90;;;;;;5012947;28;20437;-73
2023/07/22 05:37:22;;;;;;;0.60;0.10;;;;;;;;;;5009630;28;20452;-73
2023/07/22 05:39:49;;;;;;;0.60;0.30;;;17.40;99.90;;;;;;5007097;28;20484;-73
2023/07/22 05:42:18;;;;;;;0.60;0.20;;;;;;;;;;4992803;28;20924;-73
2023/07/22 05:44:48;;;;;;;0.60;0.10;;;17.40;99.90;;;;;;4993051;28;20455;-73
2023/07/22 05:47:16;;;;;;;0.60;0.13;;;17.30;99.90;;;;;;4992988;28;20538;-74
2023/07/22 05:49:46;;;;;;;0.60;0.10;;;17.30;99.90;;;;;;5000253;28;20546;-73
2023/07/22 05:52:14;;;;;;;0.60;0.10;;;17.40;99.90;;;;;;5016760;28;20572;-74
2023/07/22 05:54:42;;;;;;;0.60;0.10;;;17.40;99.90;;;;;;5012975;28;20535;-73
2023/07/22 05:57:09;;;;;;;0.60;0.10;;;17.40;99.90;;;;;;5012440;28;21030;-73
2023/07/22 05:59:37;;;;;;;0.60;0.10;;;17.50;99.90;;;;;;5012664;28;20479;-74
2023/07/22 06:02:08;;;;;;;0.60;0.10;;;17.60;99.90;;;;;;5012301;28;20985;-75
2023/07/22 06:04:36;;;;;;;0.60;0.10;;;17.60;99.90;;;;;;4995031;28;20501;-74
2023/07/22 06:07:05;;;;;;;0.60;0.10;;;17.70;99.90;;;;;;5003910;28;20951;-74
2023/07/22 06:09:32;;;;;;;0.60;0.10;;;17.80;99.90;;;;;;5012464;28;20873;-74
2023/07/22 06:12:00;;;;;;;0.60;0.10;;;17.80;99.90;;;;;;5008128;28;20558;-75
2023/07/22 06:14:28;;;;;;;0.60;0.10;;;17.80;99.90;;;;;;4993267;28;20454;-75
2023/07/22 06:16:56;;;;;;;0.60;0.20;;;17.90;99.90;;;;;;4994307;28;20479;-74
2023/07/22 06:19:26;;;;;;;4.83;3.00;;;;;;;;;;4993412;28;20480;-74
2023/07/22 06:21:54;;;;;;;0.60;0.20;;;;;;;;;;4997730;28;20483;-74
2023/07/22 06:24:22;;;;;;;0.60;0.10;;;;;;;;;;5030067;28;20531;-70
2023/07/22 06:26:50;;;;;;;0.60;0.10;;;18.10;99.90;;;;;;5002899;28;20530;-72
2023/07/22 06:29:18;;;;;;;0.60;0.10;;;;;;;;;;5014668;28;20951;-70
2023/07/22 06:31:46;;;;;;;0.60;0.10;;;;;;;;;;5012349;28;20542;-70
2023/07/22 06:34:14;;;;;;;0.60;0.10;;;18.20;99.60;;;;;;5023122;28;20482;-69
2023/07/22 06:36:43;;;;;;;0.60;0.10;;;18.40;99.90;;;;;;5025058;28;20483;-70
2023/07/22 06:39:11;;;;;;;0.60;0.10;;;18.40;94.00;;;;;;5034770;28;21016;-70
2023/07/22 06:41:39;;;;;;;0.60;0.10;;;18.50;91.20;;;;;;5024218;28;20496;-71
2023/07/22 06:44:07;;;;;;;0.60;0.10;;;18.50;85.10;;;;;;5016448;28;20534;-71
2023/07/22 06:46:35;;;;;;;0.60;0.20;;;18.50;79.40;;;;;;5016669;28;20450;-71
2023/07/22 06:49:02;;;;;;;0.70;0.30;;;18.50;75.50;;;;;;5019504;28;20447;-70
2023/07/22 06:51:30;;;;;;;0.60;0.40;;;18.50;71.60;;;;;;5019295;28;20497;-71
2023/07/22 06:53:59;;;;;;;1.13;0.80;;;18.60;71.20;;;;;;5000623;28;20896;-70
2023/07/22 06:56:28;;;;;;;0.60;0.10;;;;;;;;;;4999951;28;20856;-70
2023/07/22 06:58:56;;;;;;;0.60;0.10;;;18.60;65.30;;;;;;5008476;28;20513;-70
2023/07/22 07:01:24;;;;;;;0.60;0.10;;;18.70;65.50;;;;;;5039367;28;20474;-71
2023/07/22 07:03:52;;;;;;;0.60;0.10;;;18.80;64.40;;;;;;5004199;28;20531;-71
2023/07/22 07:06:20;;;;;;;0.60;0.10;;;18.90;63.30;;;;;;5019575;28;20465;-71
2023/07/22 07:08:48;;;;;;;0.60;0.20;;;19.00;61.10;;;;;;5029863;28;20528;-71
2023/07/22 07:11:18;;;;;;;0.70;0.30;;;19.10;61.80;;;;;;5028914;28;20463;-71
2023/07/22 07:13:45;;;;;;;0.70;0.30;;;19.20;58.80;;;;;;5015723;28;20489;-72
2023/07/22 07:16:24;;;;;;;0.60;0.10;;;19.20;35.20;;;;;;5030807;28;20936;-72
2023/07/22 07:18:54;;;;;;;0.60;0.10;;;19.20;25.70;;;;;;5028227;28;20454;-72
2023/07/22 07:21:23;;;;;;;0.60;0.10;;;19.30;25.00;;;;;;5025543;28;20521;-71
2023/07/22 07:23:52;;;;;;;0.60;0.10;;;19.30;25.40;;;;;;5025926;28;20802;-71
2023/07/22 07:26:22;;;;;;;0.60;0.20;;;19.40;24.10;;;;;;5025789;28;20442;-71
2023/07/22 07:28:51;;;;;;;0.60;0.10;;;19.40;21.80;;;;;;5020255;28;20847;-71
2023/07/22 07:31:19;;;;;;;0.60;0.10;;;19.50;23.30;;;;;;5026835;28;20514;-71
2023/07/22 07:33:48;;;;;;;0.60;0.20;;;19.60;24.60;;;;;;5020630;28;20446;-72
2023/07/22 07:36:15;;;;;;;0.60;0.10;;;19.60;24.50;;;;;;5026940;28;20471;-71
2023/07/22 07:38:43;;;;;;;0.60;0.10;;;19.70;23.90;;;;;;5017802;28;20528;-71
2023/07/22 07:41:12;;;;;;;0.60;0.20;;;;;;;;;;5022989;28;20482;-71
2023/07/22 07:43:42;;;;;;;0.60;0.20;;;19.70;25.60;;;;;;5020270;28;20443;-71
2023/07/22 07:46:17;;;;;;;0.60;0.20;;;19.70;24.90;;;;;;5020254;28;20630;-71
2023/07/22 07:48:46;;;;;;;0.60;0.10;;;19.80;24.60;;;;;;5016867;28;20578;-71
2023/07/22 07:51:14;;;;;;;0.60;0.20;;;19.90;25.10;;;;;;5022453;28;21216;-71
2023/07/22 07:53:43;;;;;;;0.60;0.20;;;20.00;24.70;;;;;;5025253;28;20513;-73
2023/07/22 07:56:12;;;;;;;0.60;0.10;;;20.10;27.00;;;;;;5021391;28;20455;-78
2023/07/22 07:58:42;;;;;;;0.60;0.10;;;20.20;28.50;;;;;;5016793;28;20530;-78
2023/07/22 08:01:09;;;;;;;0.60;0.20;;;20.40;27.60;;;;;;5016647;28;20490;-77
2023/07/22 08:03:39;;;;;;;1.67;0.50;;;20.50;22.60;;;;;;5004659;28;20455;-76
2023/07/22 08:06:08;;;;;;;1.87;1.13;;;20.60;24.40;;;;;;5014912;28;20458;-77
2023/07/22 08:08:36;;;;;;;0.60;0.17;;;20.70;23.50;;;;;;5030013;28;20839;-77
2023/07/22 08:11:05;;;;;;;0.60;0.20;;;20.70;21.00;;;;;;5029165;28;20459;-77
2023/07/22 08:13:34;;;;;;;0.60;0.10;;;;;;;;;;5010841;28;20436;-72
2023/07/22 08:16:05;;;;;;;0.60;0.20;;;20.70;19.90;;;;;;5022398;28;20448;-71
2023/07/22 08:18:33;;;;;;;0.60;0.10;;;20.70;19.30;;;;;;5023163;28;21301;-71
2023/07/22 08:21:02;;;;;;;0.60;0.10;;;20.70;19.50;;;;;;5023540;28;20984;-72
2023/07/22 08:23:31;;;;;;;0.60;0.10;;;20.70;19.90;;;;;;5018033;28;20495;-71
2023/07/22 08:25:59;;;;;;;0.60;0.10;;;20.70;18.80;;;;;;5023906;28;20482;-71
2023/07/22 08:28:26;;;;;;;0.60;0.10;;;20.60;19.50;;;;;;5025092;28;20441;-70
2023/07/22 08:30:56;;;;;;;0.60;0.10;;;20.50;19.00;;;;;;5020219;28;20555;-70
2023/07/22 08:33:25;;;;;;;0.60;0.20;;;20.40;20.70;;;;;;5022328;28;20524;-71
2023/07/22 08:36:08;;;;;;;0.60;0.10;;;20.30;20.00;;;;;;5023119;28;20498;-71
2023/07/22 08:38:36;;;;;;;0.80;0.30;;;20.30;22.40;;;;;;5022922;28;21020;-70
2023/07/22 08:41:04;;;;;;;0.60;0.10;;;20.40;23.70;;;;;;5024621;28;20515;-71
2023/07/22 08:43:34;;;;;;;0.60;0.10;;;20.40;21.50;;;;;;5021638;28;20577;-74
2023/07/22 08:46:02;;;;;;;0.60;0.20;;;20.40;21.70;;;;;;5019722;28;20465;-73
2023/07/22 08:48:33;;;;;;;0.83;0.30;;;20.50;15.70;;;;;;5018688;28;22196;-72
2023/07/22 08:51:04;;;;;;;0.70;0.30;;;20.50;15.50;;;;;;5021182;28;20478;-73
2023/07/22 08:53:34;;;;;;;0.60;0.10;;;;;;;;;;5020726;28;20527;-73
2023/07/22 08:56:02;;;;;;;0.60;0.10;;;20.80;19.40;;;;;;5013265;28;20440;-74
2023/07/22 08:58:31;;;;;;;1.93;1.13;;;20.90;11.10;;;;;;5020873;28;20507;-71
2023/07/22 09:00:59;;;;;;;0.60;0.10;;;20.90;9.20;;;;;;5024161;28;20486;-72
2023/07/22 09:03:28;;;;;;;0.60;0.10;;;21.10;5.40;;;;;;5018217;28;20453;-72
2023/07/22 09:05:58;;;;;;;0.60;0.10;;;21.20;1.00;;;;;;5026952;28;20531;-73
2023/07/22 09:08:26;;;;;;;0.60;0.20;;;21.20;1.00;;;;;;5031297;28;20536;-73
2023/07/22 09:10:54;;;;;;;0.70;0.40;;;21.40;1.00;;;;;;5019339;28;20507;-72
2023/07/22 09:13:23;;;;;;;0.70;0.30;;;21.30;1.00;;;;;;5017827;28;20529;-74
2023/07/22 09:15:52;;;;;;;0.60;0.20;;;21.40;1.00;;;;;;5012038;28;20452;-71
2023/07/22 09:18:20;;;;;;;5.03;2.60;;;21.20;1.00;;;;;;5005828;28;20832;-72
2023/07/22 09:20:51;;;;;;;0.60;0.30;;;21.30;1.00;;;;;;5003799;28;20496;-72
2023/07/22 09:23:33;;;;;;;0.60;0.10;;;21.40;1.00;;;;;;5024587;28;20444;-72
2023/07/22 09:26:09;;;;;;;0.60;0.10;;;21.50;1.00;;;;;;4996672;28;20535;-73
2023/07/22 09:28:51;;;;;;;0.60;0.10;;;21.60;1.00;;;;;;5019006;28;20516;-73
2023/07/22 09:31:20;;;;;;;0.60;0.10;;;21.70;1.00;;;;;;5010238;28;20484;-73
2023/07/22 09:33:48;;;;;;;0.60;0.20;;;21.70;1.00;;;;;;5013687;28;20464;-72
2023/07/22 09:36:17;;;;;;;0.60;0.20;;;21.60;1.00;;;;;;5016032;28;20817;-72
2023/07/22 09:38:58;;;;;;;2.40;2.27;;;23.30;1.00;;;;;;5003144;28;20459;-72
2023/07/22 09:41:29;;;;;;;0.70;0.20;;;21.50;1.00;;;;;;5000350;28;20569;-71
2023/07/22 09:43:57;;;;;;;0.70;0.30;;;21.50;1.00;;;;;;5002482;28;20448;-71
2023/07/22 09:46:32;;;;;;;0.67;0.27;;;21.50;1.00;;;;;;4995809;28;20478;-73
2023/07/22 09:49:04;;;;;;;0.80;0.20;;;21.40;1.00;;;;;;4997213;28;20485;-72
2023/07/22 09:51:34;;;;;;;1.10;0.73;;;21.40;1.00;;;;;;4993544;28;20477;-72
2023/07/22 09:54:11;;;;;;;0.60;0.20;;;21.50;1.00;;;;;;4992659;28;20800;-72
2023/07/22 09:56:47;;;;;;;0.60;0.10;;;21.60;1.00;;;;;;4992642;28;20532;-72
2023/07/22 09:59:17;;;;;;;1.73;1.13;;;21.60;1.00;;;;;;4993011;28;20539;-72
2023/07/22 10:01:48;;;;;;;0.60;0.20;;;21.80;1.00;;;;;;4992278;28;20539;-73
2023/07/22 10:04:17;;;;;;;0.60;0.20;;;21.90;1.00;;;;;;4992258;28;20958;-73
2023/07/22 10:06:46;;;;;;;0.80;0.43;;;21.90;1.00;;;;;;4992869;28;20452;-73
2023/07/22 10:09:16;;;;;;;0.70;0.20;;;21.80;1.00;;;;;;5001530;28;20813;-74
2023/07/22 10:11:44;;;;;;;0.60;0.20;;;21.90;1.00;;;;;;5018647;28;20471;-73
2023/07/22 10:14:14;;;;;;;0.60;0.10;;;;;;;;;;5016530;28;20447;-72
2023/07/22 10:16:42;;;;;;;2.13;1.07;;;22.00;1.00;;;;;;5011583;28;20449;-73
2023/07/22 10:19:12;;;;;;;0.70;0.37;;;22.10;1.00;;;;;;5006214;28;20443;-72
2023/07/22 10:21:40;;;;;;;0.60;0.20;;;22.30;1.00;;;;;;5018588;28;20484;-73
2023/07/22 10:24:09;;;;;;;1.23;1.13;;;22.10;1.00;;;;;;5030934;28;20804;-73
2023/07/22 10:26:40;;;;;;;3.47;2.13;;;21.80;1.00;;;;;;5030991;28;20760;-73
2023/07/22 10:29:14;;;;;;;1.43;1.33;;;21.60;1.00;;;;;;5020111;28;20539;-72
2023/07/22 10:31:43;;;;;;;1.30;0.70;;;;;;;;;;5022577;28;20968;-76
2023/07/22 10:34:11;;;;;;;4.40;1.37;;;21.80;1.00;;;;;;5021341;28;20467;-73
2023/07/22 10:36:39;;;;;;;0.60;0.20;;;21.90;1.00;;;;;;5008713;28;20969;-74
2023/07/22 10:39:07;;;;;;;0.80;0.40;;;;;;;;;;5018432;28;20545;-73
2023/07/22 10:41:41;;;;;;;0.70;0.10;;;22.00;1.00;;;;;;5029677;28;20907;-73
2023/07/22 10:44:12;;;;;;;0.70;0.30;;;22.20;1.00;;;;;;5031316;28;20454;-72
2023/07/22 10:46:43;;;;;;;0.60;0.20;;;22.30;1.00;;;;;;5031034;28;20451;-73
2023/07/22 10:49:13;;;;;;;0.63;0.10;;;22.40;1.00;;;;;;5018597;28;20542;-72
2023/07/22 10:51:41;;;;;;;0.70;0.10;;;22.60;1.00;;;;;;5008243;28;20477;-72
2023/07/22 10:54:13;;;;;;;0.60;0.20;;;22.80;1.00;;;;;;4999810;28;20459;-72
2023/07/22 10:56:44;;;;;;;1.67;0.50;;;22.80;1.00;;;;;;5009655;28;20462;-71
2023/07/22 10:59:12;;;;;;;0.70;0.20;;;22.90;1.00;;;;;;5017212;28;20455;-73
2023/07/22 11:01:41;;;;;;;0.70;0.20;;;;;;;;;;5026176;28;20579;-72
2023/07/22 11:04:30;;;;;;;0.60;0.10;;;22.80;1.00;;;;;;5010246;28;20805;-71
2023/07/22 11:07:10;;;;;;;0.60;0.10;;;;;;;;;;5011208;28;21023;-73
2023/07/22 11:09:44;;;;;;;0.70;0.20;;;23.00;1.00;;;;;;5010760;28;20453;-72
2023/07/22 11:12:20;;;;;;;12.93;2.00;;;23.10;1.00;;;;;;5013554;28;20461;-71
2023/07/22 11:14:50;;;;;;;0.70;0.20;;;23.00;1.00;;;;;;5013954;28;20484;-71
2023/07/22 11:17:19;;;;;;;0.60;0.10;;;23.00;1.00;;;;;;5015586;28;20824;-70
2023/07/22 11:19:49;;;;;;;0.67;0.20;;;;;;;;;;5005933;28;20539;-70
2023/07/22 11:22:17;;;;;;;0.80;0.40;;;;;;;;;;5019879;28;20481;-71
2023/07/22 11:24:45;;;;;;;0.70;0.20;;;;;;;;;;5016831;28;20525;-70
2023/07/22 11:27:16;;;;;;;2.10;0.67;;;22.90;1.00;;;;;;5006833;28;20469;-72
2023/07/22 11:29:44;;;;;;;1.50;1.13;;;;;;;;;;5012179;28;20446;-70
2023/07/22 11:32:17;;;;;;;1.07;0.70;;;22.60;1.00;;;;;;5022497;28;20563;-71
2023/07/22 11:34:45;;;;;;;0.60;0.20;;;22.50;1.00;;;;;;5013518;28;20507;-73
2023/07/22 11:37:14;;;;;;;0.60;0.20;;;;;;;;;;5013935;28;20441;-72
2023/07/22 11:39:44;;;;;;;0.70;0.23;;;;;;;;;;5011976;28;20499;-71
2023/07/22 11:42:13;;;;;;;0.67;0.10;;;22.80;1.00;;;;;;4994470;28;20490;-71
2023/07/22 11:44:42;;;;;;;0.60;0.10;;;22.80;1.00;;;;;;4994793;28;20828;-72
2023/07/22 11:47:11;;;;;;;0.60;0.10;;;;;;;;;;4995433;28;20446;-72
2023/07/22 11:49:41;;;;;;;0.60;0.10;;;23.00;1.00;;;;;;4995210;28;20462;-73
2023/07/22 11:52:10;;;;;;;0.70;0.20;;;23.00;1.00;;;;;;5009353;28;20479;-72
2023/07/22 11:54:41;;;;;;;0.70;0.10;;;22.80;1.00;;;;;;5014045;28;20449;-73
2023/07/22 11:57:14;;;;;;;0.70;0.20;;;22.80;1.00;;;;;;5014189;28;20459;-73
2023/07/22 11:59:46;;;;;;;0.80;0.30;;;22.80;1.00;;;;;;5013217;28;20477;-73
2023/07/22 12:02:15;;;;;;;0.80;0.50;;;22.90;1.00;;;;;;5007198;28;20494;-72
2023/07/22 12:04:43;;;;;;;0.70;0.20;;;;;;;;;;4993978;28;20462;-73
2023/07/22 12:07:24;;;;;;;0.70;0.20;;;23.20;1.00;;;;;;4994988;28;20475;-73
2023/07/22 12:09:52;;;;;;;0.60;0.20;;;23.40;1.00;;;;;;4999662;28;20465;-73
2023/07/22 12:12:21;;;;;;;0.70;0.20;;;;;;;;;;5013506;28;20458;-73
2023/07/22 12:14:50;;;;;;;0.80;0.30;;;23.60;1.00;;;;;;5014002;28;20841;-73
2023/07/22 12:17:18;;;;;;;3.37;1.40;;;;;;;;;;5014041;28;20466;-72
2023/07/22 12:19:53;;;;;;;1.00;0.53;;;23.50;1.00;;;;;;5012295;28;20442;-73
2023/07/22 12:22:23;;;;;;;0.97;0.40;;;;;;;;;;4993877;28;20487;-73
2023/07/22 12:24:52;;;;;;;0.70;0.30;;;23.30;1.00;;;;;;4994133;28;20538;-73
2023/07/22 12:27:21;;;;;;;1.00;0.63;;;;;;;;;;4994095;28;20474;-72
2023/07/22 12:29:50;;;;;;;0.70;0.20;;;23.30;1.00;;;;;;5007919;28;20874;-73
2023/07/22 12:32:18;;;;;;;0.70;0.20;;;23.30;1.00;;;;;;5025529;28;20548;-72
2023/07/22 12:34:46;;;;;;;3.70;1.10;;;;;;;;;;5009949;28;20450;-72
2023/07/22 12:37:14;;;;;;;1.37;0.80;;;23.30;1.00;;;;;;5002457;28;20495;-72
2023/07/22 12:39:42;;;;;;;0.70;0.10;;;;;;;;;;5022368;28;20480;-72
2023/07/22 12:42:10;;;;;;;0.70;0.20;;;;;;;;;;5026952;28;20917;-72
2023/07/22 12:44:38;;;;;;;0.70;0.20;;;;;;;;;;5005289;28;20603;-72
2023/07/22 12:47:09;;;;;;;0.70;0.10;;;23.50;1.00;;;;;;4994166;28;20529;-72
2023/07/22 12:49:36;;;;;;;1.40;1.03;;;23.50;1.00;;;;;;4994987;28;20929;-72
2023/07/22 12:52:08;;;;;;;1.03;0.40;;;23.50;1.00;;;;;;4997812;28;20959;-74
2023/07/22 12:54:36;;;;;;;0.70;0.20;;;23.50;1.00;;;;;;4993624;28;20448;-71
2023/07/22 12:57:05;;;;;;;0.70;0.10;;;23.60;1.00;;;;;;4994066;28;20529;-71
2023/07/22 12:59:33;;;;;;;0.80;0.50;;;23.60;1.00;;;;;;4994494;28;20493;-72
2023/07/22 13:02:01;;;;;;;0.70;0.10;;;23.60;1.00;;;;;;4993862;28;20994;-73
2023/07/22 13:04:30;;;;;;;0.70;0.10;;;23.60;1.00;;;;;;5000768;28;20537;-74
2023/07/22 13:06:58;;;;;;;0.70;0.10;;;;;;;;;;5008844;28;20455;-72
2023/07/22 13:09:27;;;;;;;0.70;0.20;;;;;;;;;;5013394;28;20474;-73
2023/07/22 13:11:55;;;;;;;0.90;0.63;;;;;;;;;;5013218;28;20463;-73
2023/07/22 13:14:23;;;;;;;2.83;2.63;;;23.80;1.00;;;;;;5013055;28;20471;-73
2023/07/22 13:16:51;;;;;;;0.70;0.10;;;;;;;;;;5013446;28;20533;-73
2023/07/22 13:19:19;;;;;;;1.83;0.53;;;;;;;;;;5013417;28;20530;-72
2023/07/22 13:21:49;;;;;;;1.00;0.80;;;23.50;1.00;;;;;;5012987;28;21011;-71
2023/07/22 13:24:17;;;;;;;0.80;0.47;;;;;;;;;;5012630;28;21062;-72
2023/07/22 13:26:45;;;;;;;0.70;0.40;;;;;;;;;;5012936;28;20973;-72
2023/07/22 13:29:13;;;;;;;1.50;0.80;;;;;;;;;;5010262;28;20927;-72
2023/07/22 13:31:41;;;;;;;0.70;0.10;;;;;;;;;;5008376;28;20477;-72
2023/07/22 13:34:10;;;;;;;3.83;2.93;;;;;;;;;;5017803;28;20442;-72
2023/07/22 13:36:38;;;;;;;0.70;0.10;;;24.00;1.00;;;;;;5013070;28;20447;-72
2023/07/22 13:39:07;;;;;;;0.70;0.20;;;;;;;;;;5013569;28;20969;-73
2023/07/22 13:41:36;;;;;;;0.70;0.10;;;;;;;;;;5008098;28;20549;-73
2023/07/22 13:44:04;;;;;;;0.70;0.17;;;;;;;;;;5006208;28;20486;-73
2023/07/22 13:46:33;;;;;;;0.70;0.20;;;;;;;;;;5024354;28;20440;-73
2023/07/22 13:49:01;;;;;;;0.70;0.20;;;24.40;1.00;;;;;;5017252;28;20469;-73
2023/07/22 13:51:28;;;;;;;0.70;0.20;;;24.50;1.00;;;;;;4992967;28;21041;-71
2023/07/22 13:53:58;;;;;;;0.70;0.10;;;;;;;;;;4994605;28;20464;-72
2023/07/22 13:56:27;;;;;;;0.70;0.40;;;24.60;1.00;;;;;;5014949;28;20453;-72
2023/07/22 13:58:55;;;;;;;0.70;0.10;;;24.60;1.00;;;;;;4999156;28;20440;-72
2023/07/22 14:01:24;;;;;;;0.70;0.10;;;24.60;1.00;;;;;;5013896;28;20481;-72
2023/07/22 14:03:52;;;;;;;0.80;0.30;;;;;;;;;;5011838;28;20590;-71
2023/07/22 14:06:21;;;;;;;0.70;0.10;;;;;;;;;;5010856;28;20815;-72
2023/07/22 14:08:49;;;;;;;1.00;0.57;;;;;;;;;;5007270;28;20712;-73
2023/07/22 14:11:17;;;;;;;0.90;0.63;;;;;;;;;;5002606;28;20505;-73
2023/07/22 14:13:47;;;;;;;0.93;0.67;;;24.70;1.00;;;;;;5011314;28;20538;-73
2023/07/22 14:16:15;;;;;;;0.70;0.33;;;;;;;;;;5011784;28;20979;-72
2023/07/22 14:18:51;;;;;;;2.10;1.10;;;24.80;1.00;;;;;;5002558;28;20506;-72
2023/07/22 14:21:19;;;;;;;0.87;0.60;;;24.80;1.00;;;;;;5011486;28;20529;-72
2023/07/22 14:23:48;;;;;;;0.80;0.37;;;;;;;;;;4998035;28;20518;-72
2023/07/22 14:26:16;;;;;;;0.80;0.30;;;;;;;;;;5017938;28;20450;-73
2023/07/22 14:28:44;;;;;;;0.70;0.20;;;;;;;;;;5013567;28;20525;-72
2023/07/22 14:31:13;;;;;;;1.73;0.73;;;25.30;1.00;;;;;;5010215;28;20483;-71
2023/07/22 14:33:42;;;;;;;1.77;0.83;;;;;;;;;;5022042;28;20439;-72
2023/07/22 14:36:09;;;;;;;1.07;0.60;;;25.30;1.00;;;;;;5031239;28;20863;-72
2023/07/22 14:38:38;;;;;;;0.70;0.20;;;;;;;;;;5007613;28;20545;-73
2023/07/22 14:41:05;;;;;;;1.63;0.53;;;25.60;1.00;;;;;;5023084;28;20469;-73
2023/07/22 14:43:34;;;;;;;0.70;0.40;;;;;;;;;;5022461;28;20481;-73
2023/07/22 14:46:02;;;;;;;1.10;0.70;;;;;;;;;;5031245;28;20446;-73
2023/07/22 14:48:31;;;;;;;0.80;0.30;;;25.40;1.00;;;;;;5031411;28;20468;-73
2023/07/22 14:50:59;;;;;;;0.70;0.30;;;25.40;1.00;;;;;;5031265;28;20466;-73
2023/07/22 14:53:28;;;;;;;0.70;0.20;;;;;;;;;;4998870;28;20441;-73
2023/07/22 14:55:56;;;;;;;19.47;2.93;;;25.30;1.00;;;;;;4992311;28;20799;-73
2023/07/22 14:58:24;;;;;;;0.80;0.40;;;;;;;;;;4991880;28;20490;-74
2023/07/22 15:00:53;;;;;;;3.70;3.40;;;;;;;;;;4991504;28;20561;-73
2023/07/22 15:03:21;;;;;;;0.80;0.47;;;;;;;;;;4991706;28;20853;-73
2023/07/22 15:05:50;;;;;;;2.43;1.20;;;25.70;1.00;;;;;;4991912;28;20506;-72
2023/07/22 15:08:18;;;;;;;1.40;1.30;;;;;;;;;;4994807;28;20539;-75
2023/07/22 15:10:46;;;;;;;2.13;1.17;;;25.50;1.00;;;;;;5001643;28;20444;-72
2023/07/22 15:13:14;;;;;;;1.27;0.53;;;;;;;;;;5015396;28;20465;-71
2023/07/22 15:15:42;;;;;;;0.80;0.20;;;;;;;;;;5015639;28;20975;-72
2023/07/22 15:18:11;;;;;;;1.00;0.47;;;;;;;;;;5014687;28;20440;-71
2023/07/22 15:20:39;;;;;;;0.70;0.20;;;25.40;1.00;;;;;;5001451;28;20456;-71
2023/07/22 15:23:08;;;;;;;2.83;0.90;;;25.30;1.00;;;;;;4994776;28;20488;-72
2023/07/22 15:25:36;;;;;;;0.70;0.20;;;25.40;1.00;;;;;;5014381;28;21052;-72
2023/07/22 15:28:04;;;;;;;0.70;0.10;;;;;;;;;;5015640;28;20440;-71
2023/07/22 15:30:32;;;;;;;1.80;1.00;;;;;;;;;;5014905;28;20542;-72
2023/07/22 15:33:00;;;;;;;1.70;1.27;;;25.70;1.00;;;;;;5014507;28;20971;-71
2023/07/22 15:35:28;;;;;;;0.87;0.37;;;;;;;;;;5011429;28;20815;-71
2023/07/22 15:37:56;;;;;;;1.70;1.60;;;25.90;1.00;;;;;;5015227;28;20518;-72
2023/07/22 15:40:26;;;;;;;2.30;1.90;;;25.80;1.00;;;;;;5015412;28;20470;-71
2023/07/22 15:42:54;;;;;;;0.90;0.50;;;25.70;1.00;;;;;;5012968;28;20471;-72
2023/07/22 15:45:23;;;;;;;1.77;1.40;;;25.50;1.00;;;;;;5013067;28;20506;-72
2023/07/22 15:47:51;;;;;;;4.33;2.20;;;25.60;1.00;;;;;;5012861;28;20475;-72
2023/07/22 15:50:19;;;;;;;1.17;0.60;;;25.60;1.00;;;;;;5004208;28;20987;-72
2023/07/22 15:52:47;;;;;;;0.80;0.33;;;;;;;;;;4994677;28;20551;-71
2023/07/22 15:55:15;;;;;;;0.70;0.30;;;;;;;;;;4997536;28;20916;-71
2023/07/22 15:57:46;;;;;;;0.70;0.20;;;26.20;1.00;;;;;;4996955;28;20449;-71
2023/07/22 16:00:14;;;;;;;0.90;0.53;;;;;;;;;;4996175;28;20493;-73
2023/07/22 16:02:42;;;;;;;0.70;0.20;;;25.80;1.00;;;;;;4994486;28;20480;-72
2023/07/22 16:05:10;;;;;;;0.70;0.20;;;25.70;1.00;;;;;;4994420;28;20480;-73
2023/07/22 16:07:51;;;;;;;3.57;3.10;;;25.90;1.00;;;;;;4995105;28;20444;-73
2023/07/22 16:10:19;;;;;;;2.00;1.83;;;26.00;1.00;;;;;;4997040;28;20441;-72
2023/07/22 16:12:48;;;;;;;0.70;0.40;;;26.10;1.00;;;;;;5008613;28;20553;-72
2023/07/22 16:15:16;;;;;;;2.10;1.37;;;26.10;1.00;;;;;;5019219;28;20451;-72
2023/07/22 16:17:44;;;;;;;0.77;0.43;;;26.00;1.00;;;;;;5031739;28;20525;-74
2023/07/22 16:20:13;;;;;;;0.70;0.10;;;;;;;;;;5032831;28;20457;-73
2023/07/22 16:22:41;;;;;;;0.70;0.10;;;26.10;1.00;;;;;;5013604;28;20512;-73
2023/07/22 16:25:10;;;;;;;0.70;0.10;;;;;;;;;;5008422;28;20494;-74
2023/07/22 16:27:39;;;;;;;3.13;2.67;;;26.20;1.00;;;;;;5024185;28;20514;-73
2023/07/22 16:30:09;;;;;;;3.90;0.93;;;26.00;1.00;;;;;;5013712;28;20547;-71
2023/07/22 16:32:37;;;;;;;0.87;0.30;;;;;;;;;;5012673;28;20509;-72
2023/07/22 16:35:06;;;;;;;3.57;1.53;;;25.60;1.00;;;;;;5013187;28;20815;-72
2023/07/22 16:37:34;;;;;;;1.07;0.97;;;25.50;1.00;;;;;;5013178;28;20926;-71
2023/07/22 16:40:04;;;;;;;1.73;1.53;;;25.40;1.00;;;;;;5013124;28;20446;-72
2023/07/22 16:42:32;;;;;;;2.30;1.27;;;25.60;1.00;;;;;;5013167;28;20976;-70
2023/07/22 16:45:01;;;;;;;1.73;0.93;;;;;;;;;;5004889;28;20479;-70
2023/07/22 16:47:30;;;;;;;3.37;1.33;;;25.20;1.00;;;;;;4995965;28;20448;-70
2023/07/22 16:49:58;;;;;;;0.93;0.33;;;25.20;1.00;;;;;;4993114;28;20544;-70
2023/07/22 16:52:25;;;;;;;0.90;0.40;;;25.30;1.00;;;;;;4993144;28;21051;-70
2023/07/22 16:54:54;;;;;;;1.83;0.93;;;;;;;;;;4993329;28;20452;-72
2023/07/22 16:57:22;;;;;;;0.80;0.40;;;25.20;1.00;;;;;;4993679;28;20503;-70
2023/07/22 16:59:50;;;;;;;1.13;0.47;;;;;;;;;;4993250;28;20551;-71
2023/07/22 17:02:18;;;;;;;2.00;1.50;;;;;;;;;;4993316;28;20479;-72
2023/07/22 17:04:48;;;;;;;1.93;0.97;;;;;;;;;;5012313;28;20487;-71
2023/07/22 17:07:16;;;;;;;1.00;0.47;;;;;;;;;;5012590;28;20440;-70
2023/07/22 17:09:44;;;;;;;2.87;1.30;;;25.40;1.00;;;;;;5012887;28;20450;-72
2023/07/22 17:12:12;;;;;;;1.67;0.67;;;;;;;;;;5011730;28;20491;-72
2023/07/22 17:14:40;;;;;;;1.20;1.00;;;;;;;;;;4995308;28;21027;-72
2023/07/22 17:17:08;;;;;;;1.47;1.07;;;25.80;1.00;;;;;;4993120;28;20491;-71
2023/07/22 17:19:36;;;;;;;3.00;1.80;;;;;;;;;;4992980;28;20530;-70
2023/07/22 17:22:06;;;;;;;2.80;0.97;;;25.80;1.00;;;;;;4992755;28;20482;-71
2023/07/22 17:24:33;;;;;;;1.53;0.70;;;25.80;1.00;;;;;;5001369;28;20547;-70
2023/07/22 17:27:01;;;;;;;0.70;0.10;;;25.80;1.00;;;;;;5012399;28;20439;-71
2023/07/22 17:29:30;;;;;;;2.17;1.23;;;;;;;;;;5012484;28;20973;-70
2023/07/22 17:31:58;;;;;;;2.13;1.13;;;;;;;;;;5011906;28;20491;-72